KMRB

Eastern Wv Regional / Shepherd Field Airport

Martinsburg, West Virginia, USA
METAR KMRB 181955Z 29012G19KT 10SM FEW037 FEW095 27/22 A2985 RMK LAST
Observed Flight Rules
Aug-18 @ 19:55 UTC (4 hours ago) Visual Flight Rules
Wind Visibility Clouds
290° at 12 knots
 Gusting to 19 knots
10 miles
  • Few at 3,700' AGL
  • Few at 9,500' AGL
Temperatures Readings
Current 27°C / 81°F
Dewpoint 22°C / 72°F
Humidity 74%
Altimeter 29.85" Hg
Pressure 1011 hPa
Elevation 164
METAR KMRB 181955Z 29012G19KT 10SM FEW037 FEW095 27/22 A2985 RMK LAST
Observed Flight Rules
Aug-18 @ 19:55 UTC
(4 hours ago)
VFR
Wind Visibility
290° at 12 knots
 Gusting to 19 knots
10 miles
Clouds
  • Few at 3,700' AGL
  • Few at 9,500' AGL
Temperature Dewpoint
27°C / 81°F 22°C / 72°F
Humidity Altimeter Pressure
74% 29.85" Hg 1011 hPa